sensor_id;sensor_type;location;lat;lon;timestamp;P1;P2;P0
50866;PMS7003;36839;51.946;21.002;2024-03-25T00:00:47;28.00;24.00;17.00
50866;PMS7003;36839;51.946;21.002;2024-03-25T00:03:34;29.00;29.00;18.00
50866;PMS7003;36839;51.946;21.002;2024-03-25T00:06:01;30.00;22.00;17.00
50866;PMS7003;36839;51.946;21.002;2024-03-25T00:08:28;32.50;25.00;16.50
50866;PMS7003;36839;51.946;21.002;2024-03-25T00:10:55;28.00;25.00;17.00
50866;PMS7003;36839;51.946;21.002;2024-03-25T00:13:23;27.00;20.00;15.00
50866;PMS7003;36839;51.946;21.002;2024-03-25T00:15:49;38.50;29.50;19.50
50866;PMS7003;36839;51.946;21.002;2024-03-25T00:18:17;30.00;25.00;18.00
50866;PMS7003;36839;51.946;21.002;2024-03-25T00:20:43;30.33;26.67;18.00
50866;PMS7003;36839;51.946;21.002;2024-03-25T00:23:10;26.00;20.50;13.00
50866;PMS7003;36839;51.946;21.002;2024-03-25T00:25:38;22.00;20.50;13.00
50866;PMS7003;36839;51.946;21.002;2024-03-25T00:28:04;23.50;20.00;16.00
50866;PMS7003;36839;51.946;21.002;2024-03-25T00:30:31;28.25;20.00;15.50
50866;PMS7003;36839;51.946;21.002;2024-03-25T00:32:58;23.50;22.00;16.00
50866;PMS7003;36839;51.946;21.002;2024-03-25T00:35:26;40.00;34.00;23.00
50866;PMS7003;36839;51.946;21.002;2024-03-25T00:37:53;34.00;31.00;23.00
50866;PMS7003;36839;51.946;21.002;2024-03-25T00:40:21;20.67;17.00;6.33
50866;PMS7003;36839;51.946;21.002;2024-03-25T00:42:48;21.00;20.50;16.50
50866;PMS7003;36839;51.946;21.002;2024-03-25T00:45:15;42.00;32.50;22.00
50866;PMS7003;36839;51.946;21.002;2024-03-25T00:47:42;34.00;30.50;22.00
50866;PMS7003;36839;51.946;21.002;2024-03-25T00:50:09;36.00;30.00;21.00
50866;PMS7003;36839;51.946;21.002;2024-03-25T00:52:36;35.00;31.00;21.00
50866;PMS7003;36839;51.946;21.002;2024-03-25T00:55:03;28.00;25.00;18.00
50866;PMS7003;36839;51.946;21.002;2024-03-25T00:57:30;27.00;27.00;19.00
50866;PMS7003;36839;51.946;21.002;2024-03-25T00:59:57;34.00;30.67;22.00
50866;PMS7003;36839;51.946;21.002;2024-03-25T01:02:24;31.00;25.00;18.00
50866;PMS7003;36839;51.946;21.002;2024-03-25T01:04:50;32.67;28.67;19.00
50866;PMS7003;36839;51.946;21.002;2024-03-25T01:07:17;38.00;32.00;20.50
50866;PMS7003;36839;51.946;21.002;2024-03-25T01:09:43;32.00;30.00;20.00
50866;PMS7003;36839;51.946;21.002;2024-03-25T01:12:11;34.50;27.25;18.25
50866;PMS7003;36839;51.946;21.002;2024-03-25T01:14:37;30.00;29.00;21.00
50866;PMS7003;36839;51.946;21.002;2024-03-25T01:17:04;29.00;25.00;19.50
50866;PMS7003;36839;51.946;21.002;2024-03-25T01:19:31;36.67;29.67;19.67
50866;PMS7003;36839;51.946;21.002;2024-03-25T01:21:57;36.00;31.50;22.00
50866;PMS7003;36839;51.946;21.002;2024-03-25T01:24:25;28.00;27.50;18.50
50866;PMS7003;36839;51.946;21.002;2024-03-25T01:26:52;38.00;30.50;18.00
50866;PMS7003;36839;51.946;21.002;2024-03-25T01:29:19;30.00;26.00;18.00
50866;PMS7003;36839;51.946;21.002;2024-03-25T01:31:46;33.33;26.00;20.00
50866;PMS7003;36839;51.946;21.002;2024-03-25T01:34:13;30.00;27.00;19.00
50866;PMS7003;36839;51.946;21.002;2024-03-25T01:36:40;29.00;25.50;15.50
50866;PMS7003;36839;51.946;21.002;2024-03-25T01:39:07;37.50;31.00;22.50
50866;PMS7003;36839;51.946;21.002;2024-03-25T01:41:34;42.67;32.00;21.33
50866;PMS7003;36839;51.946;21.002;2024-03-25T01:44:02;31.00;30.00;18.33
50866;PMS7003;36839;51.946;21.002;2024-03-25T01:46:29;38.00;32.00;22.00
50866;PMS7003;36839;51.946;21.002;2024-03-25T01:48:56;41.67;35.33;23.00
50866;PMS7003;36839;51.946;21.002;2024-03-25T01:51:25;39.00;32.50;23.00
50866;PMS7003;36839;51.946;21.002;2024-03-25T01:53:52;31.00;28.00;21.00
50866;PMS7003;36839;51.946;21.002;2024-03-25T01:56:21;34.00;30.00;21.00
50866;PMS7003;36839;51.946;21.002;2024-03-25T01:58:50;40.00;32.00;22.00
50866;PMS7003;36839;51.946;21.002;2024-03-25T02:01:17;32.00;28.50;21.00
50866;PMS7003;36839;51.946;21.002;2024-03-25T02:03:46;35.00;26.00;18.50
50866;PMS7003;36839;51.946;21.002;2024-03-25T02:06:14;29.00;27.50;19.00
50866;PMS7003;36839;51.946;21.002;2024-03-25T02:08:44;33.00;29.50;23.00
50866;PMS7003;36839;51.946;21.002;2024-03-25T02:11:11;38.00;33.00;22.00
50866;PMS7003;36839;51.946;21.002;2024-03-25T02:13:39;38.00;34.00;22.00
50866;PMS7003;36839;51.946;21.002;2024-03-25T02:16:06;42.00;35.33;23.00
50866;PMS7003;36839;51.946;21.002;2024-03-25T02:18:32;31.00;28.00;22.50
50866;PMS7003;36839;51.946;21.002;2024-03-25T02:21:00;39.00;31.00;22.00
50866;PMS7003;36839;51.946;21.002;2024-03-25T02:23:27;47.00;36.00;26.00
50866;PMS7003;36839;51.946;21.002;2024-03-25T02:25:54;45.00;34.00;24.00
50866;PMS7003;36839;51.946;21.002;2024-03-25T02:28:21;50.33;39.67;26.00
50866;PMS7003;36839;51.946;21.002;2024-03-25T02:30:48;49.00;41.00;26.00
50866;PMS7003;36839;51.946;21.002;2024-03-25T02:33:14;53.00;44.00;26.00
50866;PMS7003;36839;51.946;21.002;2024-03-25T02:35:41;58.00;45.00;30.00
50866;PMS7003;36839;51.946;21.002;2024-03-25T02:38:10;57.00;48.00;30.33
50866;PMS7003;36839;51.946;21.002;2024-03-25T02:40:37;50.00;42.00;26.00
50866;PMS7003;36839;51.946;21.002;2024-03-25T02:43:04;45.00;37.00;25.00
50866;PMS7003;36839;51.946;21.002;2024-03-25T02:45:33;40.67;33.33;18.33
50866;PMS7003;36839;51.946;21.002;2024-03-25T02:47:59;44.00;36.00;24.33
50866;PMS7003;36839;51.946;21.002;2024-03-25T02:50:26;46.50;37.00;24.50
50866;PMS7003;36839;51.946;21.002;2024-03-25T02:52:53;42.00;35.00;23.00
50866;PMS7003;36839;51.946;21.002;2024-03-25T02:55:20;43.00;33.00;22.50
50866;PMS7003;36839;51.946;21.002;2024-03-25T02:57:47;40.00;33.00;23.00
50866;PMS7003;36839;51.946;21.002;2024-03-25T03:00:13;43.50;34.00;23.50
50866;PMS7003;36839;51.946;21.002;2024-03-25T03:02:40;47.00;37.00;24.00
50866;PMS7003;36839;51.946;21.002;2024-03-25T03:05:07;41.00;34.00;23.00
50866;PMS7003;36839;51.946;21.002;2024-03-25T03:07:34;37.50;33.50;23.00
50866;PMS7003;36839;51.946;21.002;2024-03-25T03:10:01;47.00;37.00;24.00
50866;PMS7003;36839;51.946;21.002;2024-03-25T03:12:28;41.33;33.33;22.00
50866;PMS7003;36839;51.946;21.002;2024-03-25T03:14:55;37.00;29.00;19.00
50866;PMS7003;36839;51.946;21.002;2024-03-25T03:17:21;29.00;26.00;17.00
50866;PMS7003;36839;51.946;21.002;2024-03-25T03:19:48;40.00;35.00;22.00
50866;PMS7003;36839;51.946;21.002;2024-03-25T03:22:16;41.50;34.00;24.50
50866;PMS7003;36839;51.946;21.002;2024-03-25T03:24:42;41.00;34.00;23.00
50866;PMS7003;36839;51.946;21.002;2024-03-25T03:27:09;41.00;35.00;23.00
50866;PMS7003;36839;51.946;21.002;2024-03-25T03:29:36;36.00;34.00;23.00
50866;PMS7003;36839;51.946;21.002;2024-03-25T03:32:03;37.00;31.50;20.00
50866;PMS7003;36839;51.946;21.002;2024-03-25T03:34:29;34.00;31.00;20.00
50866;PMS7003;36839;51.946;21.002;2024-03-25T03:36:56;33.25;31.25;22.00
50866;PMS7003;36839;51.946;21.002;2024-03-25T03:39:23;37.00;32.00;22.00
50866;PMS7003;36839;51.946;21.002;2024-03-25T03:41:50;35.00;31.00;20.50
50866;PMS7003;36839;51.946;21.002;2024-03-25T03:44:17;44.00;35.00;22.00
50866;PMS7003;36839;51.946;21.002;2024-03-25T03:46:43;37.00;32.00;21.33
50866;PMS7003;36839;51.946;21.002;2024-03-25T03:49:09;40.50;33.00;22.00
50866;PMS7003;36839;51.946;21.002;2024-03-25T03:51:37;38.00;34.50;23.00
50866;PMS7003;36839;51.946;21.002;2024-03-25T03:54:03;41.33;32.00;21.00
50866;PMS7003;36839;51.946;21.002;2024-03-25T03:56:30;41.00;32.00;21.67
50866;PMS7003;36839;51.946;21.002;2024-03-25T03:58:57;46.00;29.00;18.50
50866;PMS7003;36839;51.946;21.002;2024-03-25T04:01:24;34.50;28.50;19.00
50866;PMS7003;36839;51.946;21.002;2024-03-25T04:03:51;32.33;31.00;20.33
50866;PMS7003;36839;51.946;21.002;2024-03-25T04:06:18;35.50;30.50;21.50
50866;PMS7003;36839;51.946;21.002;2024-03-25T04:08:44;33.67;29.00;20.33
50866;PMS7003;36839;51.946;21.002;2024-03-25T04:11:12;34.00;31.00;21.00
50866;PMS7003;36839;51.946;21.002;2024-03-25T04:13:38;36.00;30.00;20.50
50866;PMS7003;36839;51.946;21.002;2024-03-25T04:16:05;31.50;29.00;19.00
50866;PMS7003;36839;51.946;21.002;2024-03-25T04:18:32;39.33;30.00;22.33
50866;PMS7003;36839;51.946;21.002;2024-03-25T04:21:00;31.50;26.50;18.00
50866;PMS7003;36839;51.946;21.002;2024-03-25T04:23:27;27.00;22.00;17.50
50866;PMS7003;36839;51.946;21.002;2024-03-25T04:25:54;26.00;23.50;18.00
50866;PMS7003;36839;51.946;21.002;2024-03-25T04:28:21;34.00;29.00;23.00
50866;PMS7003;36839;51.946;21.002;2024-03-25T04:30:52;44.00;36.00;23.00
50866;PMS7003;36839;51.946;21.002;2024-03-25T04:33:21;38.33;30.33;18.67
50866;PMS7003;36839;51.946;21.002;2024-03-25T04:35:48;32.67;28.00;18.00
50866;PMS7003;36839;51.946;21.002;2024-03-25T04:38:16;26.00;25.00;17.50
50866;PMS7003;36839;51.946;21.002;2024-03-25T04:40:44;39.00;30.00;19.00
50866;PMS7003;36839;51.946;21.002;2024-03-25T04:43:10;29.50;27.00;18.00
50866;PMS7003;36839;51.946;21.002;2024-03-25T04:45:36;31.00;31.00;22.00
50866;PMS7003;36839;51.946;21.002;2024-03-25T04:48:03;37.67;29.67;20.67
50866;PMS7003;36839;51.946;21.002;2024-03-25T04:50:30;45.50;35.00;23.50
50866;PMS7003;36839;51.946;21.002;2024-03-25T04:52:57;41.50;35.00;22.00
50866;PMS7003;36839;51.946;21.002;2024-03-25T04:55:24;37.00;33.00;22.00
50866;PMS7003;36839;51.946;21.002;2024-03-25T04:57:51;43.67;34.33;23.00
50866;PMS7003;36839;51.946;21.002;2024-03-25T05:00:18;43.00;32.00;22.00
50866;PMS7003;36839;51.946;21.002;2024-03-25T05:02:45;31.50;30.50;22.50
50866;PMS7003;36839;51.946;21.002;2024-03-25T05:05:12;36.00;34.00;23.00
50866;PMS7003;36839;51.946;21.002;2024-03-25T05:07:39;21.75;17.75;11.00
50866;PMS7003;36839;51.946;21.002;2024-03-25T05:10:06;28.00;24.50;17.50
50866;PMS7003;36839;51.946;21.002;2024-03-25T05:12:33;38.00;35.00;21.50
50866;PMS7003;36839;51.946;21.002;2024-03-25T05:15:00;28.00;28.00;18.00
50866;PMS7003;36839;51.946;21.002;2024-03-25T05:17:27;37.00;31.00;23.00
50866;PMS7003;36839;51.946;21.002;2024-03-25T05:22:21;35.00;29.50;19.00
50866;PMS7003;36839;51.946;21.002;2024-03-25T05:24:48;26.50;24.00;17.50
50866;PMS7003;36839;51.946;21.002;2024-03-25T05:27:16;37.00;29.00;20.00
50866;PMS7003;36839;51.946;21.002;2024-03-25T05:29:42;41.00;31.00;21.00
50866;PMS7003;36839;51.946;21.002;2024-03-25T05:32:09;31.00;30.50;21.00
50866;PMS7003;36839;51.946;21.002;2024-03-25T05:34:36;39.00;31.00;20.00
50866;PMS7003;36839;51.946;21.002;2024-03-25T05:37:03;39.00;31.00;19.50
50866;PMS7003;36839;51.946;21.002;2024-03-25T05:39:29;42.50;34.50;22.00
50866;PMS7003;36839;51.946;21.002;2024-03-25T05:41:56;37.00;32.50;20.50
50866;PMS7003;36839;51.946;21.002;2024-03-25T05:44:22;32.00;27.00;18.50
50866;PMS7003;36839;51.946;21.002;2024-03-25T05:46:49;36.00;32.00;23.00
50866;PMS7003;36839;51.946;21.002;2024-03-25T05:49:15;38.50;30.00;20.50
50866;PMS7003;36839;51.946;21.002;2024-03-25T05:51:41;32.50;31.50;22.00
50866;PMS7003;36839;51.946;21.002;2024-03-25T05:54:08;28.00;25.75;19.75
50866;PMS7003;36839;51.946;21.002;2024-03-25T05:56:34;33.50;32.50;21.00
50866;PMS7003;36839;51.946;21.002;2024-03-25T05:59:01;31.67;28.67;18.67
50866;PMS7003;36839;51.946;21.002;2024-03-25T06:01:28;34.00;25.50;18.50
50866;PMS7003;36839;51.946;21.002;2024-03-25T06:03:55;37.00;31.00;20.00
50866;PMS7003;36839;51.946;21.002;2024-03-25T06:06:22;32.00;28.00;18.00
50866;PMS7003;36839;51.946;21.002;2024-03-25T06:08:48;28.00;28.00;20.00
50866;PMS7003;36839;51.946;21.002;2024-03-25T06:11:16;32.33;28.00;19.33
50866;PMS7003;36839;51.946;21.002;2024-03-25T06:13:47;36.00;27.33;17.67
50866;PMS7003;36839;51.946;21.002;2024-03-25T06:16:15;35.00;32.00;21.00
50866;PMS7003;36839;51.946;21.002;2024-03-25T06:18:42;31.00;27.50;17.00
50866;PMS7003;36839;51.946;21.002;2024-03-25T06:21:08;38.50;29.50;19.00
50866;PMS7003;36839;51.946;21.002;2024-03-25T06:23:35;32.67;29.67;20.33
50866;PMS7003;36839;51.946;21.002;2024-03-25T06:26:02;38.00;33.00;22.00
50866;PMS7003;36839;51.946;21.002;2024-03-25T06:28:28;37.75;31.25;21.50
50866;PMS7003;36839;51.946;21.002;2024-03-25T06:30:55;38.00;31.50;21.00
50866;PMS7003;36839;51.946;21.002;2024-03-25T06:33:41;37.67;31.67;20.67
50866;PMS7003;36839;51.946;21.002;2024-03-25T06:36:27;25.00;18.00;14.00
50866;PMS7003;36839;51.946;21.002;2024-03-25T06:38:53;34.00;29.33;19.67
50866;PMS7003;36839;51.946;21.002;2024-03-25T06:41:20;29.00;25.00;18.00
50866;PMS7003;36839;51.946;21.002;2024-03-25T06:43:47;33.50;27.50;20.25
50866;PMS7003;36839;51.946;21.002;2024-03-25T06:46:14;33.00;29.50;20.00
50866;PMS7003;36839;51.946;21.002;2024-03-25T06:48:40;31.00;28.50;18.00
50866;PMS7003;36839;51.946;21.002;2024-03-25T06:51:07;26.00;23.00;16.50
50866;PMS7003;36839;51.946;21.002;2024-03-25T06:53:34;30.00;25.00;18.00
50866;PMS7003;36839;51.946;21.002;2024-03-25T06:56:00;29.50;23.50;16.00
50866;PMS7003;36839;51.946;21.002;2024-03-25T06:58:27;24.50;21.00;17.00
50866;PMS7003;36839;51.946;21.002;2024-03-25T07:00:55;30.00;26.00;21.67
50866;PMS7003;36839;51.946;21.002;2024-03-25T07:05:50;35.33;25.67;18.67
50866;PMS7003;36839;51.946;21.002;2024-03-25T07:08:26;35.67;28.67;21.67
50866;PMS7003;36839;51.946;21.002;2024-03-25T07:10:54;34.00;24.50;19.50
50866;PMS7003;36839;51.946;21.002;2024-03-25T07:13:21;35.33;27.33;19.67
50866;PMS7003;36839;51.946;21.002;2024-03-25T07:15:48;36.00;33.00;21.00
50866;PMS7003;36839;51.946;21.002;2024-03-25T07:18:14;32.00;25.00;21.00
50866;PMS7003;36839;51.946;21.002;2024-03-25T07:20:44;28.50;27.00;18.00
50866;PMS7003;36839;51.946;21.002;2024-03-25T07:23:11;35.50;26.50;19.50
50866;PMS7003;36839;51.946;21.002;2024-03-25T07:25:37;27.50;25.50;18.50
50866;PMS7003;36839;51.946;21.002;2024-03-25T07:28:04;27.00;25.00;17.00
50866;PMS7003;36839;51.946;21.002;2024-03-25T07:30:32;32.50;25.50;16.00
50866;PMS7003;36839;51.946;21.002;2024-03-25T07:32:58;30.33;27.33;19.00
50866;PMS7003;36839;51.946;21.002;2024-03-25T07:35:25;32.00;27.00;19.00
50866;PMS7003;36839;51.946;21.002;2024-03-25T07:37:52;27.50;24.50;18.50
50866;PMS7003;36839;51.946;21.002;2024-03-25T07:40:19;25.50;24.50;17.50
50866;PMS7003;36839;51.946;21.002;2024-03-25T07:42:46;30.00;24.00;18.00
50866;PMS7003;36839;51.946;21.002;2024-03-25T07:45:15;28.50;24.00;18.50
50866;PMS7003;36839;51.946;21.002;2024-03-25T07:47:42;19.50;18.50;15.50
50866;PMS7003;36839;51.946;21.002;2024-03-25T07:50:08;21.50;18.00;15.00
50866;PMS7003;36839;51.946;21.002;2024-03-25T07:52:35;26.50;25.50;19.50
50866;PMS7003;36839;51.946;21.002;2024-03-25T07:55:09;25.67;23.00;15.00
50866;PMS7003;36839;51.946;21.002;2024-03-25T07:57:36;26.50;23.50;17.00
50866;PMS7003;36839;51.946;21.002;2024-03-25T08:00:03;26.00;24.00;17.50
50866;PMS7003;36839;51.946;21.002;2024-03-25T08:02:35;35.50;27.00;19.00
50866;PMS7003;36839;51.946;21.002;2024-03-25T08:05:02;28.00;25.00;18.00
50866;PMS7003;36839;51.946;21.002;2024-03-25T08:07:29;24.50;23.00;16.00
50866;PMS7003;36839;51.946;21.002;2024-03-25T08:09:55;28.00;23.50;18.50
50866;PMS7003;36839;51.946;21.002;2024-03-25T08:12:23;28.00;25.00;19.00
50866;PMS7003;36839;51.946;21.002;2024-03-25T08:14:49;33.00;30.00;21.00
50866;PMS7003;36839;51.946;21.002;2024-03-25T08:17:16;28.00;25.00;18.00
50866;PMS7003;36839;51.946;21.002;2024-03-25T08:19:42;25.50;23.50;17.50
50866;PMS7003;36839;51.946;21.002;2024-03-25T08:22:09;30.50;24.50;18.00
50866;PMS7003;36839;51.946;21.002;2024-03-25T08:24:36;32.67;30.00;21.33
50866;PMS7003;36839;51.946;21.002;2024-03-25T08:27:03;29.00;26.00;19.50
50866;PMS7003;36839;51.946;21.002;2024-03-25T08:29:30;32.00;29.00;20.00
50866;PMS7003;36839;51.946;21.002;2024-03-25T08:31:57;27.00;25.00;19.00
50866;PMS7003;36839;51.946;21.002;2024-03-25T08:34:23;30.00;27.00;18.00
50866;PMS7003;36839;51.946;21.002;2024-03-25T08:36:51;31.00;26.00;19.00
50866;PMS7003;36839;51.946;21.002;2024-03-25T08:39:17;23.25;21.25;15.00
50866;PMS7003;36839;51.946;21.002;2024-03-25T08:41:44;29.50;24.00;17.00
50866;PMS7003;36839;51.946;21.002;2024-03-25T08:44:10;25.00;24.00;19.00
50866;PMS7003;36839;51.946;21.002;2024-03-25T08:46:39;26.50;23.50;19.00
50866;PMS7003;36839;51.946;21.002;2024-03-25T08:49:06;22.50;21.50;17.00
50866;PMS7003;36839;51.946;21.002;2024-03-25T08:51:34;29.00;20.67;14.67
50866;PMS7003;36839;51.946;21.002;2024-03-25T08:54:00;26.00;22.00;16.00
50866;PMS7003;36839;51.946;21.002;2024-03-25T08:56:28;25.00;23.00;15.50
50866;PMS7003;36839;51.946;21.002;2024-03-25T08:58:54;26.00;21.00;15.00
50866;PMS7003;36839;51.946;21.002;2024-03-25T09:01:21;26.00;23.50;15.00
50866;PMS7003;36839;51.946;21.002;2024-03-25T09:03:49;27.00;24.00;17.00
50866;PMS7003;36839;51.946;21.002;2024-03-25T09:06:16;25.33;24.33;16.67
50866;PMS7003;36839;51.946;21.002;2024-03-25T09:08:43;27.00;24.33;16.67
50866;PMS7003;36839;51.946;21.002;2024-03-25T09:11:38;24.00;20.00;15.50
50866;PMS7003;36839;51.946;21.002;2024-03-25T09:14:06;24.00;22.50;17.00
50866;PMS7003;36839;51.946;21.002;2024-03-25T09:16:33;25.00;19.50;15.50
50866;PMS7003;36839;51.946;21.002;2024-03-25T09:19:00;24.00;23.00;16.00
50866;PMS7003;36839;51.946;21.002;2024-03-25T09:21:27;21.00;20.00;15.00
50866;PMS7003;36839;51.946;21.002;2024-03-25T09:23:55;17.00;15.33;12.67
50866;PMS7003;36839;51.946;21.002;2024-03-25T09:26:24;17.00;15.00;13.00
50866;PMS7003;36839;51.946;21.002;2024-03-25T09:28:51;27.50;25.00;18.00
50866;PMS7003;36839;51.946;21.002;2024-03-25T09:31:19;26.00;22.00;16.00
50866;PMS7003;36839;51.946;21.002;2024-03-25T09:33:45;31.33;24.67;18.33
50866;PMS7003;36839;51.946;21.002;2024-03-25T09:36:12;23.50;22.00;18.00
50866;PMS7003;36839;51.946;21.002;2024-03-25T09:38:40;26.00;20.50;15.50
50866;PMS7003;36839;51.946;21.002;2024-03-25T09:41:08;21.67;21.67;18.33
50866;PMS7003;36839;51.946;21.002;2024-03-25T09:43:47;23.00;22.00;16.00
50866;PMS7003;36839;51.946;21.002;2024-03-25T09:46:18;24.50;24.50;19.50
50866;PMS7003;36839;51.946;21.002;2024-03-25T09:48:44;29.00;22.00;17.00
50866;PMS7003;36839;51.946;21.002;2024-03-25T09:51:11;18.00;18.00;15.00
50866;PMS7003;36839;51.946;21.002;2024-03-25T09:53:39;16.50;16.50;14.00
50866;PMS7003;36839;51.946;21.002;2024-03-25T09:56:05;10.50;10.00;8.00
50866;PMS7003;36839;51.946;21.002;2024-03-25T09:58:34;11.00;9.00;8.00
50866;PMS7003;36839;51.946;21.002;2024-03-25T10:01:01;13.00;12.00;10.00
50866;PMS7003;36839;51.946;21.002;2024-03-25T10:03:28;14.00;12.50;10.00
50866;PMS7003;36839;51.946;21.002;2024-03-25T10:05:55;13.00;12.50;10.00
50866;PMS7003;36839;51.946;21.002;2024-03-25T10:08:21;14.00;14.00;12.00
50866;PMS7003;36839;51.946;21.002;2024-03-25T10:10:49;16.00;13.00;12.00
50866;PMS7003;36839;51.946;21.002;2024-03-25T10:13:17;18.00;16.00;13.00
50866;PMS7003;36839;51.946;21.002;2024-03-25T10:15:47;14.00;12.00;9.00
50866;PMS7003;36839;51.946;21.002;2024-03-25T10:18:14;14.50;13.00;10.50
50866;PMS7003;36839;51.946;21.002;2024-03-25T10:20:47;18.00;15.00;11.67
50866;PMS7003;36839;51.946;21.002;2024-03-25T10:23:15;20.00;17.00;13.00
50866;PMS7003;36839;51.946;21.002;2024-03-25T10:25:41;12.00;11.50;9.50
50866;PMS7003;36839;51.946;21.002;2024-03-25T10:28:09;6.50;6.00;5.00
50866;PMS7003;36839;51.946;21.002;2024-03-25T10:30:36;10.50;10.00;8.50
50866;PMS7003;36839;51.946;21.002;2024-03-25T10:33:03;14.50;11.50;10.00
50866;PMS7003;36839;51.946;21.002;2024-03-25T10:35:36;13.00;10.00;7.00
50866;PMS7003;36839;51.946;21.002;2024-03-25T10:38:05;11.67;11.33;9.67
50866;PMS7003;36839;51.946;21.002;2024-03-25T10:40:35;9.00;9.00;7.00
50866;PMS7003;36839;51.946;21.002;2024-03-25T10:43:09;10.00;9.00;7.50
50866;PMS7003;36839;51.946;21.002;2024-03-25T10:45:38;10.50;10.50;8.50
50866;PMS7003;36839;51.946;21.002;2024-03-25T10:48:12;7.00;7.00;5.00
50866;PMS7003;36839;51.946;21.002;2024-03-25T10:50:43;11.00;10.33;8.33
50866;PMS7003;36839;51.946;21.002;2024-03-25T10:53:12;13.00;10.00;8.00
50866;PMS7003;36839;51.946;21.002;2024-03-25T10:55:44;10.00;10.00;8.00
50866;PMS7003;36839;51.946;21.002;2024-03-25T10:58:16;12.00;11.00;7.00
50866;PMS7003;36839;51.946;21.002;2024-03-25T11:00:46;6.75;6.75;5.00
50866;PMS7003;36839;51.946;21.002;2024-03-25T11:03:15;5.00;5.00;5.00
50866;PMS7003;36839;51.946;21.002;2024-03-25T11:05:43;6.00;6.00;5.00
50866;PMS7003;36839;51.946;21.002;2024-03-25T11:08:14;6.00;6.00;5.00
50866;PMS7003;36839;51.946;21.002;2024-03-25T11:10:43;8.50;7.00;5.00
50866;PMS7003;36839;51.946;21.002;2024-03-25T11:13:12;7.00;7.00;6.00
50866;PMS7003;36839;51.946;21.002;2024-03-25T11:15:41;8.33;7.67;6.00
50866;PMS7003;36839;51.946;21.002;2024-03-25T11:18:10;9.00;7.00;6.00
50866;PMS7003;36839;51.946;21.002;2024-03-25T11:20:38;11.00;11.00;7.00
50866;PMS7003;36839;51.946;21.002;2024-03-25T11:23:10;11.00;11.00;9.00
50866;PMS7003;36839;51.946;21.002;2024-03-25T11:25:38;13.00;13.00;10.50
50866;PMS7003;36839;51.946;21.002;2024-03-25T11:28:06;12.50;12.50;10.00
50866;PMS7003;36839;51.946;21.002;2024-03-25T11:30:33;11.00;9.67;8.00
50866;PMS7003;36839;51.946;21.002;2024-03-25T11:33:03;8.00;8.00;7.00
50866;PMS7003;36839;51.946;21.002;2024-03-25T11:35:37;6.00;6.00;5.00
50866;PMS7003;36839;51.946;21.002;2024-03-25T11:38:04;11.50;8.00;6.50
50866;PMS7003;36839;51.946;21.002;2024-03-25T11:40:31;7.00;5.00;5.00
50866;PMS7003;36839;51.946;21.002;2024-03-25T11:42:59;4.00;4.00;4.00
50866;PMS7003;36839;51.946;21.002;2024-03-25T11:45:26;6.00;5.00;4.00
50866;PMS7003;36839;51.946;21.002;2024-03-25T11:47:53;2.67;2.67;2.67
50866;PMS7003;36839;51.946;21.002;2024-03-25T11:50:22;4.50;4.50;4.00
50866;PMS7003;36839;51.946;21.002;2024-03-25T11:52:49;6.25;5.00;4.75
50866;PMS7003;36839;51.946;21.002;2024-03-25T11:55:18;8.50;6.00;5.00
50866;PMS7003;36839;51.946;21.002;2024-03-25T11:57:45;4.00;4.00;3.00
50866;PMS7003;36839;51.946;21.002;2024-03-25T12:00:12;8.00;8.00;7.00
50866;PMS7003;36839;51.946;21.002;2024-03-25T12:02:43;7.50;7.50;6.50
50866;PMS7003;36839;51.946;21.002;2024-03-25T12:05:11;8.00;8.00;7.00
50866;PMS7003;36839;51.946;21.002;2024-03-25T12:07:38;10.00;9.00;6.00
50866;PMS7003;36839;51.946;21.002;2024-03-25T12:10:05;10.00;10.00;7.00
50866;PMS7003;36839;51.946;21.002;2024-03-25T12:12:52;8.00;8.00;8.00
50866;PMS7003;36839;51.946;21.002;2024-03-25T12:15:19;9.00;8.00;6.50
50866;PMS7003;36839;51.946;21.002;2024-03-25T12:17:46;10.33;9.33;8.00
50866;PMS7003;36839;51.946;21.002;2024-03-25T12:20:14;9.00;7.33;6.00
50866;PMS7003;36839;51.946;21.002;2024-03-25T12:22:42;12.00;10.00;8.00
50866;PMS7003;36839;51.946;21.002;2024-03-25T12:25:10;9.50;9.50;8.00
50866;PMS7003;36839;51.946;21.002;2024-03-25T12:27:38;8.00;8.00;7.00
50866;PMS7003;36839;51.946;21.002;2024-03-25T12:30:08;7.00;7.00;6.00
50866;PMS7003;36839;51.946;21.002;2024-03-25T12:35:15;8.00;8.00;5.00
50866;PMS7003;36839;51.946;21.002;2024-03-25T12:37:43;7.25;7.25;5.50
50866;PMS7003;36839;51.946;21.002;2024-03-25T12:40:25;7.33;7.00;6.00
50866;PMS7003;36839;51.946;21.002;2024-03-25T12:42:53;11.00;8.00;7.00
50866;PMS7003;36839;51.946;21.002;2024-03-25T12:45:21;9.67;8.00;6.67
50866;PMS7003;36839;51.946;21.002;2024-03-25T12:47:50;9.00;8.50;7.50
50866;PMS7003;36839;51.946;21.002;2024-03-25T12:50:17;13.00;13.00;11.00
50866;PMS7003;36839;51.946;21.002;2024-03-25T12:52:46;15.33;14.00;11.00
50866;PMS7003;36839;51.946;21.002;2024-03-25T12:55:14;12.00;10.00;7.50
50866;PMS7003;36839;51.946;21.002;2024-03-25T12:57:41;12.00;12.00;10.00
50866;PMS7003;36839;51.946;21.002;2024-03-25T13:00:08;17.50;15.50;12.00
50866;PMS7003;36839;51.946;21.002;2024-03-25T13:02:37;19.00;16.00;12.25
50866;PMS7003;36839;51.946;21.002;2024-03-25T13:05:03;12.00;10.00;8.00
50866;PMS7003;36839;51.946;21.002;2024-03-25T13:07:31;13.00;13.00;11.00
50866;PMS7003;36839;51.946;21.002;2024-03-25T13:09:59;12.00;12.00;10.00
50866;PMS7003;36839;51.946;21.002;2024-03-25T13:12:26;21.50;17.00;12.50
50866;PMS7003;36839;51.946;21.002;2024-03-25T13:14:53;16.00;14.00;11.00
50866;PMS7003;36839;51.946;21.002;2024-03-25T13:17:20;14.00;13.00;11.00
50866;PMS7003;36839;51.946;21.002;2024-03-25T13:19:47;13.00;13.00;10.50
50866;PMS7003;36839;51.946;21.002;2024-03-25T13:22:14;16.00;16.00;12.00
50866;PMS7003;36839;51.946;21.002;2024-03-25T13:24:41;16.00;15.00;12.00
50866;PMS7003;36839;51.946;21.002;2024-03-25T13:27:08;14.50;14.25;11.50
50866;PMS7003;36839;51.946;21.002;2024-03-25T13:29:35;15.25;14.75;12.00
50866;PMS7003;36839;51.946;21.002;2024-03-25T13:32:04;17.00;16.00;12.00
50866;PMS7003;36839;51.946;21.002;2024-03-25T13:34:31;17.50;17.50;14.00
50866;PMS7003;36839;51.946;21.002;2024-03-25T13:36:58;22.00;21.00;15.00
50866;PMS7003;36839;51.946;21.002;2024-03-25T13:39:24;20.00;19.50;14.00
50866;PMS7003;36839;51.946;21.002;2024-03-25T13:41:51;22.75;20.00;15.50
50866;PMS7003;36839;51.946;21.002;2024-03-25T13:44:18;21.00;17.33;14.67
50866;PMS7003;36839;51.946;21.002;2024-03-25T13:46:44;18.75;18.25;13.75
50866;PMS7003;36839;51.946;21.002;2024-03-25T13:49:11;21.50;19.50;14.00